createdAt,value
2023-02-14T00:01:06.575Z,2.20
2023-02-14T00:03:33.342Z,2.20
2023-02-14T00:06:14.550Z,2.20
2023-02-14T00:08:44.730Z,2.20
2023-02-14T00:11:12.751Z,2.10
2023-02-14T00:13:39.674Z,2.20
2023-02-14T00:16:06.778Z,2.10
2023-02-14T00:18:52.066Z,2.10
2023-02-14T00:21:18.966Z,2.10
2023-02-14T00:23:45.791Z,2.10
2023-02-14T00:26:16.127Z,2.10
2023-02-14T00:28:43.140Z,2.10
2023-02-14T00:31:10.146Z,2.10
2023-02-14T00:33:37.198Z,2.10
2023-02-14T00:36:07.038Z,2.00
2023-02-14T00:38:34.713Z,2.00
2023-02-14T00:41:02.153Z,2.00
2023-02-14T00:43:29.054Z,2.00
2023-02-14T00:45:59.387Z,2.00
2023-02-14T00:48:26.335Z,1.90
2023-02-14T00:50:53.168Z,1.90
2023-02-14T00:53:19.976Z,1.90
2023-02-14T00:55:49.399Z,1.90
2023-02-14T00:58:16.197Z,1.90
2023-02-14T01:00:43.021Z,1.90
2023-02-14T01:03:09.991Z,1.90
2023-02-14T01:05:36.800Z,1.90
2023-02-14T01:08:03.855Z,1.90
2023-02-14T01:10:31.120Z,1.90
2023-02-14T01:12:57.984Z,1.90
2023-02-14T01:15:24.798Z,1.90
2023-02-14T01:17:51.589Z,1.90
2023-02-14T01:20:18.575Z,2.00
2023-02-14T01:22:45.337Z,2.00
2023-02-14T01:25:12.260Z,2.00
2023-02-14T01:27:39.132Z,2.00
2023-02-14T01:30:06.810Z,2.00
2023-02-14T01:32:33.812Z,2.00
2023-02-14T01:35:00.688Z,2.00
2023-02-14T01:37:28.122Z,2.00
2023-02-14T01:39:54.930Z,2.00
2023-02-14T01:42:22.106Z,2.00
2023-02-14T01:45:06.414Z,2.00
2023-02-14T01:47:41.073Z,2.00
2023-02-14T01:50:12.182Z,2.10
2023-02-14T01:52:44.703Z,2.10
2023-02-14T01:55:16.943Z,2.10
2023-02-14T01:57:55.514Z,2.10
2023-02-14T02:00:41.262Z,2.00
2023-02-14T02:03:09.099Z,2.10
2023-02-14T02:05:40.687Z,2.00
2023-02-14T02:08:07.621Z,2.00
2023-02-14T02:10:34.443Z,2.00
2023-02-14T02:13:06.565Z,2.00
2023-02-14T02:15:48.041Z,2.00
2023-02-14T02:18:44.372Z,2.00
2023-02-14T02:21:59.145Z,1.90
2023-02-14T02:24:58.293Z,1.90
2023-02-14T02:27:49.660Z,1.90
2023-02-14T02:30:51.107Z,1.90
2023-02-14T02:33:27.100Z,1.90
2023-02-14T02:36:18.710Z,1.90
2023-02-14T02:39:00.220Z,1.80
2023-02-14T02:41:55.009Z,1.70
2023-02-14T02:44:35.077Z,1.70
2023-02-14T02:47:11.724Z,1.70
2023-02-14T02:50:03.224Z,1.70
2023-02-14T02:53:04.179Z,1.60
2023-02-14T02:55:56.331Z,1.60
2023-02-14T02:58:27.248Z,1.60
2023-02-14T03:00:56.207Z,1.60
2023-02-14T03:03:45.025Z,1.60
2023-02-14T03:06:11.812Z,1.60
2023-02-14T03:08:38.608Z,1.60
2023-02-14T03:11:05.926Z,1.60
2023-02-14T03:14:20.486Z,1.60
2023-02-14T03:17:08.282Z,1.60
2023-02-14T03:20:14.035Z,1.60
2023-02-14T03:22:44.253Z,1.60
2023-02-14T03:25:16.888Z,1.60
2023-02-14T03:28:28.460Z,1.60
2023-02-14T03:31:10.721Z,1.60
2023-02-14T03:34:15.930Z,1.60
2023-02-14T03:36:48.837Z,1.50
2023-02-14T03:39:27.628Z,1.60
2023-02-14T03:42:06.196Z,1.50
2023-02-14T03:44:35.733Z,1.50
2023-02-14T03:47:10.750Z,1.50
2023-02-14T03:49:44.949Z,1.50
2023-02-14T03:52:12.579Z,1.50
2023-02-14T03:54:39.764Z,1.50
2023-02-14T03:57:24.791Z,1.50
2023-02-14T03:59:52.266Z,1.50
2023-02-14T04:02:28.216Z,1.50
2023-02-14T04:04:56.988Z,1.50
2023-02-14T04:07:24.156Z,1.40
2023-02-14T04:09:51.312Z,1.40
2023-02-14T04:12:26.702Z,1.40
2023-02-14T04:14:59.365Z,1.40
2023-02-14T04:17:44.857Z,1.40
2023-02-14T04:20:11.865Z,1.40
2023-02-14T04:22:38.695Z,1.30
2023-02-14T04:25:05.761Z,1.30
2023-02-14T04:27:32.576Z,1.30
2023-02-14T04:29:59.449Z,1.30
2023-02-14T04:32:26.432Z,1.30
2023-02-14T04:34:53.610Z,1.30
2023-02-14T04:37:20.646Z,1.20
2023-02-14T04:39:47.482Z,1.20
2023-02-14T04:42:14.948Z,1.20
2023-02-14T04:44:42.327Z,1.20
2023-02-14T04:47:09.397Z,1.20
2023-02-14T04:49:36.533Z,1.10
2023-02-14T04:52:04.675Z,1.10
2023-02-14T04:54:31.681Z,1.10
2023-02-14T04:56:58.577Z,1.00
2023-02-14T04:59:26.146Z,1.00
2023-02-14T05:01:53.651Z,1.00
2023-02-14T05:04:20.815Z,1.00
2023-02-14T05:06:47.734Z,1.00
2023-02-14T05:09:14.616Z,0.90
2023-02-14T05:11:41.798Z,0.90
2023-02-14T05:14:09.298Z,0.90
2023-02-14T05:16:36.145Z,0.90
2023-02-14T05:19:02.972Z,0.90
2023-02-14T05:21:33.082Z,0.90
2023-02-14T05:24:00.869Z,0.80
2023-02-14T05:26:28.218Z,0.80
2023-02-14T05:28:55.191Z,0.80
2023-02-14T05:31:22.655Z,0.80
2023-02-14T05:33:49.602Z,0.70
2023-02-14T05:36:16.453Z,0.70
2023-02-14T05:38:44.755Z,0.70
2023-02-14T05:41:11.746Z,0.70
2023-02-14T05:43:38.711Z,0.70
2023-02-14T05:46:06.221Z,0.80
2023-02-14T05:48:33.782Z,0.80
2023-02-14T05:51:09.175Z,0.80
2023-02-14T05:53:36.234Z,0.80
2023-02-14T05:56:03.233Z,0.80
2023-02-14T05:58:30.395Z,0.80
2023-02-14T06:00:58.325Z,0.80
2023-02-14T06:03:25.979Z,0.90
2023-02-14T06:05:52.854Z,0.90
2023-02-14T06:08:19.870Z,0.90
2023-02-14T06:10:46.864Z,0.90
2023-02-14T06:13:13.741Z,0.90
2023-02-14T06:15:40.713Z,0.90
2023-02-14T06:18:07.854Z,0.90
2023-02-14T06:20:34.950Z,0.90
2023-02-14T06:23:02.157Z,0.90
2023-02-14T06:25:29.065Z,0.90
2023-02-14T06:27:57.285Z,0.80
2023-02-14T06:30:24.911Z,0.80
2023-02-14T06:32:51.973Z,0.80
2023-02-14T06:35:19.023Z,0.70
2023-02-14T06:37:45.865Z,0.70
2023-02-14T06:40:13.928Z,0.70
2023-02-14T06:42:40.731Z,0.70
2023-02-14T06:45:08.015Z,0.60
2023-02-14T06:47:35.305Z,0.60
2023-02-14T06:50:05.011Z,0.60
2023-02-14T06:52:33.128Z,0.60
2023-02-14T06:55:00.046Z,0.60
2023-02-14T06:57:27.045Z,0.60
2023-02-14T06:59:53.902Z,0.60
2023-02-14T07:02:23.563Z,0.60
2023-02-14T07:04:51.593Z,0.60
2023-02-14T07:07:18.478Z,0.60
2023-02-14T07:09:45.348Z,0.60
2023-02-14T07:12:12.163Z,0.60
2023-02-14T07:14:38.985Z,0.60
2023-02-14T07:17:06.029Z,0.60
2023-02-14T07:19:32.996Z,0.60
2023-02-14T07:22:00.026Z,0.70
2023-02-14T07:24:26.949Z,0.70
2023-02-14T07:26:53.752Z,0.70
2023-02-14T07:29:20.590Z,0.80
2023-02-14T07:31:47.572Z,0.80
2023-02-14T07:34:14.588Z,0.90
2023-02-14T07:36:41.498Z,0.90
2023-02-14T07:39:08.404Z,1.00
2023-02-14T07:41:35.268Z,1.00
2023-02-14T07:44:02.263Z,1.10
2023-02-14T07:46:29.289Z,1.10
2023-02-14T07:48:56.222Z,1.20
2023-02-14T07:51:23.082Z,1.20
2023-02-14T07:53:49.915Z,1.30
2023-02-14T07:56:16.861Z,1.30
2023-02-14T07:58:43.938Z,1.40
2023-02-14T08:01:10.833Z,1.50
2023-02-14T08:03:37.907Z,1.50
2023-02-14T08:06:04.954Z,1.60
2023-02-14T08:08:32.786Z,1.70
2023-02-14T08:10:59.979Z,1.70
2023-02-14T08:13:27.389Z,1.80
2023-02-14T08:16:07.697Z,1.90
2023-02-14T08:18:40.332Z,1.90
2023-02-14T08:21:10.222Z,2.00
2023-02-14T08:23:38.214Z,2.10
2023-02-14T08:26:05.308Z,2.20
2023-02-14T08:28:33.369Z,2.30
2023-02-14T08:31:00.780Z,2.30
2023-02-14T08:33:27.903Z,2.40
2023-02-14T08:35:54.802Z,2.40
2023-02-14T08:38:22.048Z,2.50
2023-02-14T08:40:49.152Z,2.60
2023-02-14T08:43:16.110Z,2.60
2023-02-14T08:45:43.202Z,2.70
2023-02-14T08:48:12.152Z,2.70
2023-02-14T08:50:39.827Z,2.80
2023-02-14T08:53:08.915Z,2.90
2023-02-14T08:55:36.257Z,3.00
2023-02-14T08:58:04.077Z,3.00
2023-02-14T09:00:32.202Z,3.10
2023-02-14T09:02:59.318Z,3.20
2023-02-14T09:05:26.824Z,3.20
2023-02-14T09:07:56.392Z,3.30
2023-02-14T09:10:24.540Z,3.40
2023-02-14T09:12:52.005Z,3.40
2023-02-14T09:15:19.053Z,3.50
2023-02-14T09:17:46.450Z,3.60
2023-02-14T09:20:15.086Z,3.60
2023-02-14T09:22:42.096Z,3.70
2023-02-14T09:25:09.134Z,3.80
2023-02-14T09:27:35.973Z,3.90
2023-02-14T09:30:03.215Z,3.90
2023-02-14T09:32:30.208Z,4.00
2023-02-14T09:34:57.205Z,4.00
2023-02-14T09:37:42.614Z,4.10
2023-02-14T09:40:12.637Z,4.20
2023-02-14T09:42:56.626Z,4.30
2023-02-14T09:45:29.098Z,4.40
2023-02-14T09:48:15.161Z,4.40
2023-02-14T09:51:17.786Z,4.50
2023-02-14T09:53:50.115Z,4.60
2023-02-14T09:56:23.495Z,4.70
2023-02-14T09:59:02.478Z,4.70
2023-02-14T10:01:40.916Z,4.80
2023-02-14T10:04:17.002Z,4.90
2023-02-14T10:06:49.247Z,5.00
2023-02-14T10:09:32.012Z,5.00
2023-02-14T10:12:01.505Z,5.10
2023-02-14T10:14:33.954Z,5.20
2023-02-14T10:17:18.307Z,5.30
2023-02-14T10:19:58.276Z,5.40
2023-02-14T10:22:38.516Z,5.40
2023-02-14T10:25:18.398Z,5.50
2023-02-14T10:27:46.762Z,5.60
2023-02-14T10:30:15.088Z,5.70
2023-02-14T10:33:03.513Z,5.80
2023-02-14T10:35:49.917Z,5.90
2023-02-14T10:38:42.533Z,5.90
2023-02-14T10:41:57.912Z,6.00
2023-02-14T10:44:42.030Z,6.10
2023-02-14T10:47:22.669Z,6.20
2023-02-14T10:50:19.461Z,6.30
2023-02-14T10:53:12.430Z,6.40
2023-02-14T10:55:56.982Z,6.40
2023-02-14T10:58:27.539Z,6.50
2023-02-14T11:01:13.888Z,6.60
2023-02-14T11:03:47.174Z,6.70
2023-02-14T11:06:14.050Z,6.80
2023-02-14T11:08:41.548Z,6.90
2023-02-14T11:11:15.961Z,6.90
2023-02-14T11:13:43.632Z,7.10
2023-02-14T11:16:18.199Z,7.10
2023-02-14T11:18:45.040Z,7.20
2023-02-14T11:21:17.629Z,7.30
2023-02-14T11:23:46.869Z,7.40
2023-02-14T11:26:32.522Z,7.50
2023-02-14T11:29:12.131Z,7.50
2023-02-14T11:31:41.896Z,7.60
2023-02-14T11:34:32.393Z,7.70
2023-02-14T11:37:00.251Z,7.80
2023-02-14T11:39:35.706Z,7.90
2023-02-14T11:42:04.897Z,8.00
2023-02-14T11:44:33.228Z,8.00
2023-02-14T11:47:19.512Z,8.10
2023-02-14T11:49:58.337Z,8.20
2023-02-14T11:52:28.957Z,8.30
2023-02-14T11:55:00.454Z,8.30
2023-02-14T11:57:38.144Z,8.40
2023-02-14T12:00:16.839Z,8.50
2023-02-14T12:02:49.803Z,8.60
2023-02-14T12:05:16.741Z,8.60
2023-02-14T12:07:45.676Z,8.70
2023-02-14T12:10:18.110Z,8.70
2023-02-14T12:13:24.472Z,8.80
2023-02-14T12:15:54.164Z,8.90
2023-02-14T12:18:54.285Z,9.00
2023-02-14T12:21:43.018Z,9.10
2023-02-14T12:24:31.858Z,9.10
2023-02-14T12:27:04.627Z,9.20
2023-02-14T12:29:48.294Z,9.20
2023-02-14T12:32:25.295Z,9.30
2023-02-14T12:35:02.130Z,9.40
2023-02-14T12:37:40.951Z,9.40
2023-02-14T12:40:36.580Z,9.50
2023-02-14T12:43:19.793Z,9.50
2023-02-14T12:46:04.670Z,9.50
2023-02-14T12:49:17.336Z,9.60
2023-02-14T12:52:02.058Z,9.70
2023-02-14T12:54:40.508Z,9.80
2023-02-14T12:57:16.651Z,9.80
2023-02-14T13:00:04.658Z,9.90
2023-02-14T13:02:50.392Z,10.00
2023-02-14T13:05:35.806Z,10.00
2023-02-14T13:08:11.458Z,10.00
2023-02-14T13:11:00.323Z,10.10
2023-02-14T13:14:17.664Z,10.10
2023-02-14T13:17:06.273Z,10.20
2023-02-14T13:19:51.866Z,10.20
2023-02-14T13:22:24.071Z,10.30
2023-02-14T13:24:56.900Z,10.30
2023-02-14T13:27:29.964Z,10.20
2023-02-14T13:30:01.422Z,10.30
2023-02-14T13:32:42.237Z,10.30
2023-02-14T13:35:16.938Z,10.30
2023-02-14T13:37:52.226Z,10.40
2023-02-14T13:40:23.045Z,10.40
2023-02-14T13:42:51.965Z,10.40
2023-02-14T13:45:39.978Z,10.50
2023-02-14T13:48:27.428Z,10.50
2023-02-14T13:51:01.960Z,10.50
2023-02-14T13:53:35.210Z,10.50
2023-02-14T13:56:15.542Z,10.60
2023-02-14T13:59:00.599Z,10.60
2023-02-14T14:01:48.479Z,10.60
2023-02-14T14:04:33.448Z,10.60
2023-02-14T14:07:03.738Z,10.60
2023-02-14T14:09:42.947Z,10.60
2023-02-14T14:12:28.352Z,10.60
2023-02-14T14:15:08.102Z,10.60
2023-02-14T14:17:45.897Z,10.60
2023-02-14T14:20:21.871Z,10.60
2023-02-14T14:22:57.206Z,10.60
2023-02-14T14:25:37.439Z,10.60
2023-02-14T14:28:26.751Z,10.60
2023-02-14T14:30:54.034Z,10.60
2023-02-14T14:33:27.624Z,10.60
2023-02-14T14:36:08.358Z,10.60
2023-02-14T14:38:49.550Z,10.60
2023-02-14T14:41:16.937Z,10.60
2023-02-14T14:43:44.065Z,10.60
2023-02-14T14:46:15.862Z,10.60
2023-02-14T14:48:51.534Z,10.50
2023-02-14T14:51:32.058Z,10.50
2023-02-14T14:53:59.658Z,10.50
2023-02-14T14:56:38.175Z,10.50
2023-02-14T14:59:35.227Z,10.50
2023-02-14T15:02:30.362Z,10.40
2023-02-14T15:04:57.238Z,10.40
2023-02-14T15:07:33.148Z,10.40
2023-02-14T15:10:00.507Z,10.30
2023-02-14T15:12:46.902Z,10.30
2023-02-14T15:15:17.132Z,10.40
2023-02-14T15:17:46.557Z,10.40
2023-02-14T15:20:22.454Z,10.30
2023-02-14T15:22:52.030Z,10.30
2023-02-14T15:25:38.277Z,10.30
2023-02-14T15:28:05.205Z,10.30
2023-02-14T15:30:37.827Z,10.20
2023-02-14T15:33:06.726Z,10.10
2023-02-14T15:35:36.474Z,10.10
2023-02-14T15:38:07.069Z,10.10
2023-02-14T15:40:35.715Z,10.00
2023-02-14T15:43:18.106Z,10.00
2023-02-14T15:45:51.075Z,9.90
2023-02-14T15:48:29.817Z,9.90
2023-02-14T15:50:59.975Z,9.80
2023-02-14T15:54:07.742Z,9.80
2023-02-14T15:56:46.808Z,9.70
2023-02-14T15:59:21.133Z,9.60
2023-02-14T16:01:54.644Z,9.60
2023-02-14T16:04:39.817Z,9.50
2023-02-14T16:07:16.608Z,9.50
2023-02-14T16:09:44.639Z,9.40
2023-02-14T16:12:35.533Z,9.40
2023-02-14T16:15:17.692Z,9.30
2023-02-14T16:17:45.350Z,9.20
2023-02-14T16:20:45.336Z,9.20
2023-02-14T16:23:27.694Z,9.10
2023-02-14T16:25:57.392Z,9.00
2023-02-14T16:28:28.412Z,8.90
2023-02-14T16:30:57.551Z,8.80
2023-02-14T16:33:30.693Z,8.70
2023-02-14T16:36:06.640Z,8.60
2023-02-14T16:38:41.336Z,8.40
2023-02-14T16:41:24.229Z,8.30
2023-02-14T16:43:51.616Z,8.20
2023-02-14T16:46:22.846Z,8.10
2023-02-14T16:48:52.339Z,7.90
2023-02-14T16:51:24.728Z,7.80
2023-02-14T16:53:51.784Z,7.70
2023-02-14T16:56:32.937Z,7.60
2023-02-14T16:59:00.235Z,7.40
2023-02-14T17:01:27.167Z,7.30
2023-02-14T17:03:54.101Z,7.20
2023-02-14T17:06:24.689Z,7.10
2023-02-14T17:08:52.893Z,7.00
2023-02-14T17:11:21.282Z,6.90
2023-02-14T17:13:48.980Z,6.80
2023-02-14T17:16:17.185Z,6.70
2023-02-14T17:18:51.692Z,6.60
2023-02-14T17:21:22.404Z,6.50
2023-02-14T17:23:49.759Z,6.50
2023-02-14T17:26:18.457Z,6.40
2023-02-14T17:28:46.467Z,6.30
2023-02-14T17:31:14.355Z,6.30
2023-02-14T17:33:41.381Z,6.20
2023-02-14T17:36:12.101Z,6.10
2023-02-14T17:38:40.365Z,6.10
2023-02-14T17:41:15.302Z,6.00
2023-02-14T17:43:43.051Z,5.90
2023-02-14T17:46:10.073Z,5.90
2023-02-14T17:48:36.882Z,5.80
2023-02-14T17:51:09.193Z,5.80
2023-02-14T17:53:36.570Z,5.80
2023-02-14T17:56:09.286Z,5.70
2023-02-14T17:58:36.804Z,5.70
2023-02-14T18:01:09.046Z,5.60
2023-02-14T18:03:36.342Z,5.50
2023-02-14T18:06:04.211Z,5.40
2023-02-14T18:08:34.003Z,5.40
2023-02-14T18:11:05.376Z,5.30
2023-02-14T18:13:32.396Z,5.20
2023-02-14T18:16:03.318Z,5.20
2023-02-14T18:18:30.603Z,5.20
2023-02-14T18:21:00.104Z,5.10
2023-02-14T18:23:27.749Z,5.10
2023-02-14T18:26:01.125Z,5.00
2023-02-14T18:28:28.476Z,5.00
2023-02-14T18:30:57.958Z,4.90
2023-02-14T18:33:25.665Z,4.80
2023-02-14T18:35:52.733Z,4.80
2023-02-14T18:38:19.742Z,4.70
2023-02-14T18:40:46.862Z,4.70
2023-02-14T18:43:13.800Z,4.60
2023-02-14T18:45:41.052Z,4.60
2023-02-14T18:48:09.114Z,4.60
2023-02-14T18:50:36.289Z,4.50
2023-02-14T18:53:03.298Z,4.50
2023-02-14T18:55:30.160Z,4.50
2023-02-14T18:57:57.108Z,4.40
2023-02-14T19:00:24.947Z,4.40
2023-02-14T19:02:52.038Z,4.40
2023-02-14T19:05:19.093Z,4.40
2023-02-14T19:07:46.200Z,4.30
2023-02-14T19:10:13.112Z,4.30
2023-02-14T19:12:40.026Z,4.30
2023-02-14T19:15:07.688Z,4.20
2023-02-14T19:17:34.929Z,4.20
2023-02-14T19:20:05.446Z,4.20
2023-02-14T19:22:36.287Z,4.20
2023-02-14T19:25:03.151Z,4.10
2023-02-14T19:27:30.071Z,4.10
2023-02-14T19:29:57.059Z,4.00
2023-02-14T19:32:23.957Z,4.00
2023-02-14T19:34:51.391Z,4.00
2023-02-14T19:37:18.366Z,3.90
2023-02-14T19:39:45.417Z,3.90
2023-02-14T19:42:12.483Z,3.90
2023-02-14T19:44:40.348Z,3.90
2023-02-14T19:47:23.391Z,3.90
2023-02-14T19:49:53.978Z,3.80
2023-02-14T19:52:27.841Z,3.80
2023-02-14T19:54:57.979Z,3.70
2023-02-14T19:57:25.259Z,3.70
2023-02-14T19:59:52.105Z,3.70
2023-02-14T20:02:19.974Z,3.70
2023-02-14T20:04:46.961Z,3.70
2023-02-14T20:07:13.901Z,3.60
2023-02-14T20:09:40.760Z,3.60
2023-02-14T20:12:07.768Z,3.60
2023-02-14T20:14:50.280Z,3.50
2023-02-14T20:17:18.852Z,3.50
2023-02-14T20:19:45.727Z,3.50
2023-02-14T20:22:12.724Z,3.50
2023-02-14T20:24:39.575Z,3.40
2023-02-14T20:27:08.065Z,3.40
2023-02-14T20:29:35.049Z,3.40
2023-02-14T20:32:05.011Z,3.30
2023-02-14T20:34:32.054Z,3.30
2023-02-14T20:37:00.205Z,3.30
2023-02-14T20:39:30.510Z,3.30
2023-02-14T20:41:57.534Z,3.30
2023-02-14T20:44:24.463Z,3.30
2023-02-14T20:46:54.172Z,3.20
2023-02-14T20:49:22.789Z,3.20
2023-02-14T20:51:50.766Z,3.20
2023-02-14T20:54:22.990Z,3.20
2023-02-14T20:56:51.027Z,3.20
2023-02-14T20:59:27.388Z,3.10
2023-02-14T21:01:56.464Z,3.10
2023-02-14T21:04:23.765Z,3.10
2023-02-14T21:06:50.643Z,3.00
2023-02-14T21:09:18.677Z,3.00
2023-02-14T21:11:45.610Z,3.00
2023-02-14T21:14:12.457Z,3.00
2023-02-14T21:16:39.333Z,3.00
2023-02-14T21:19:06.362Z,2.90
2023-02-14T21:21:36.460Z,2.90
2023-02-14T21:24:07.062Z,2.90
2023-02-14T21:26:34.188Z,2.90
2023-02-14T21:29:01.788Z,2.80
2023-02-14T21:31:28.771Z,2.80
2023-02-14T21:33:59.188Z,2.80
2023-02-14T21:36:29.341Z,2.80
2023-02-14T21:38:58.308Z,2.80
2023-02-14T21:41:28.791Z,2.80
2023-02-14T21:43:56.959Z,2.70
2023-02-14T21:46:30.851Z,2.70
2023-02-14T21:49:18.915Z,2.70
2023-02-14T21:51:46.436Z,2.70
2023-02-14T21:54:13.673Z,2.70
2023-02-14T21:56:44.398Z,2.70
2023-02-14T21:59:11.948Z,2.70
2023-02-14T22:01:41.197Z,2.60
2023-02-14T22:04:10.508Z,2.60
2023-02-14T22:06:38.997Z,2.60
2023-02-14T22:09:06.355Z,2.60
2023-02-14T22:11:34.048Z,2.60
2023-02-14T22:14:01.313Z,2.60
2023-02-14T22:16:28.387Z,2.60
2023-02-14T22:18:56.568Z,2.60
2023-02-14T22:21:25.849Z,2.60
2023-02-14T22:23:54.528Z,2.60
2023-02-14T22:26:27.404Z,2.50
2023-02-14T22:28:57.422Z,2.50
2023-02-14T22:31:25.831Z,2.50
2023-02-14T22:33:53.478Z,2.50
2023-02-14T22:36:20.544Z,2.40
2023-02-14T22:38:47.430Z,2.40
2023-02-14T22:41:16.858Z,2.40
2023-02-14T22:43:46.001Z,2.40
2023-02-14T22:46:24.536Z,2.30
2023-02-14T22:48:52.516Z,2.30
2023-02-14T22:51:31.569Z,2.30
2023-02-14T22:54:04.386Z,2.30
2023-02-14T22:56:42.549Z,2.20
2023-02-14T22:59:16.905Z,2.20
2023-02-14T23:01:44.344Z,2.20
2023-02-14T23:04:11.684Z,2.20
2023-02-14T23:06:39.001Z,2.10
2023-02-14T23:09:08.297Z,2.10
2023-02-14T23:11:36.998Z,2.10
2023-02-14T23:14:22.912Z,2.10
2023-02-14T23:17:08.786Z,2.10
2023-02-14T23:19:55.641Z,2.00
2023-02-14T23:22:22.492Z,2.00
2023-02-14T23:24:51.569Z,2.00
2023-02-14T23:27:20.962Z,2.00
2023-02-14T23:29:48.208Z,1.90
2023-02-14T23:32:15.760Z,1.90
2023-02-14T23:34:44.166Z,1.90
2023-02-14T23:37:12.234Z,1.90
2023-02-14T23:39:39.436Z,1.90
2023-02-14T23:42:08.730Z,1.90
2023-02-14T23:44:36.267Z,1.90
2023-02-14T23:47:05.587Z,1.90
2023-02-14T23:49:34.192Z,1.90
2023-02-14T23:52:02.179Z,1.80
2023-02-14T23:54:29.068Z,1.80
2023-02-14T23:56:57.621Z,1.80
2023-02-14T23:59:24.956Z,1.80
